sensor_id;sensor_type;location;lat;lon;timestamp;temperature;humidity
42907;DHT22;28552;51.146;6.576;2024-02-26T00:01:17;6.50;99.90
42907;DHT22;28552;51.146;6.576;2024-02-26T00:04:18;6.40;99.90
42907;DHT22;28552;51.146;6.576;2024-02-26T00:07:18;6.30;99.90
42907;DHT22;28552;51.146;6.576;2024-02-26T00:10:19;6.30;99.90
42907;DHT22;28552;51.146;6.576;2024-02-26T00:13:20;6.20;99.90
42907;DHT22;28552;51.146;6.576;2024-02-26T00:16:22;6.30;99.90
42907;DHT22;28552;51.146;6.576;2024-02-26T00:19:23;6.20;99.90
42907;DHT22;28552;51.146;6.576;2024-02-26T00:22:24;6.20;99.90
42907;DHT22;28552;51.146;6.576;2024-02-26T00:25:25;6.20;99.90
42907;DHT22;28552;51.146;6.576;2024-02-26T00:28:26;6.20;99.90
42907;DHT22;28552;51.146;6.576;2024-02-26T00:31:27;6.20;99.90
42907;DHT22;28552;51.146;6.576;2024-02-26T00:34:28;6.10;99.90
42907;DHT22;28552;51.146;6.576;2024-02-26T00:37:29;6.10;99.90
42907;DHT22;28552;51.146;6.576;2024-02-26T00:40:30;6.00;99.90
42907;DHT22;28552;51.146;6.576;2024-02-26T00:43:31;6.00;99.90
42907;DHT22;28552;51.146;6.576;2024-02-26T00:46:32;5.90;99.90
42907;DHT22;28552;51.146;6.576;2024-02-26T00:49:32;6.00;99.90
42907;DHT22;28552;51.146;6.576;2024-02-26T00:52:34;5.80;99.90
42907;DHT22;28552;51.146;6.576;2024-02-26T00:55:34;5.90;99.90
42907;DHT22;28552;51.146;6.576;2024-02-26T00:58:35;5.90;99.90
42907;DHT22;28552;51.146;6.576;2024-02-26T01:01:37;5.90;99.90
42907;DHT22;28552;51.146;6.576;2024-02-26T01:04:37;5.80;99.90
42907;DHT22;28552;51.146;6.576;2024-02-26T01:07:39;5.80;99.90
42907;DHT22;28552;51.146;6.576;2024-02-26T01:10:40;5.80;99.90
42907;DHT22;28552;51.146;6.576;2024-02-26T01:13:45;5.80;99.90
42907;DHT22;28552;51.146;6.576;2024-02-26T01:16:46;5.80;99.90
42907;DHT22;28552;51.146;6.576;2024-02-26T01:19:46;5.80;99.90
42907;DHT22;28552;51.146;6.576;2024-02-26T01:22:47;5.80;99.90
42907;DHT22;28552;51.146;6.576;2024-02-26T01:25:48;5.80;99.90
42907;DHT22;28552;51.146;6.576;2024-02-26T01:28:49;5.80;99.90
42907;DHT22;28552;51.146;6.576;2024-02-26T01:31:49;5.80;99.90
42907;DHT22;28552;51.146;6.576;2024-02-26T01:34:50;5.80;99.90
42907;DHT22;28552;51.146;6.576;2024-02-26T01:37:50;5.80;99.90
42907;DHT22;28552;51.146;6.576;2024-02-26T01:40:51;5.80;99.90
42907;DHT22;28552;51.146;6.576;2024-02-26T01:43:52;5.80;99.90
42907;DHT22;28552;51.146;6.576;2024-02-26T01:46:53;5.80;99.90
42907;DHT22;28552;51.146;6.576;2024-02-26T01:49:54;5.70;99.90
42907;DHT22;28552;51.146;6.576;2024-02-26T01:52:55;5.70;99.90
42907;DHT22;28552;51.146;6.576;2024-02-26T01:55:57;5.80;99.90
42907;DHT22;28552;51.146;6.576;2024-02-26T01:58:58;5.70;99.90
42907;DHT22;28552;51.146;6.576;2024-02-26T02:02:01;5.70;99.90
42907;DHT22;28552;51.146;6.576;2024-02-26T02:05:02;5.70;99.90
42907;DHT22;28552;51.146;6.576;2024-02-26T02:08:04;5.70;99.90
42907;DHT22;28552;51.146;6.576;2024-02-26T02:11:06;5.70;99.90
42907;DHT22;28552;51.146;6.576;2024-02-26T02:14:07;5.70;99.90
42907;DHT22;28552;51.146;6.576;2024-02-26T02:17:08;5.70;99.90
42907;DHT22;28552;51.146;6.576;2024-02-26T02:20:16;5.70;99.90
42907;DHT22;28552;51.146;6.576;2024-02-26T02:23:18;5.70;99.90
42907;DHT22;28552;51.146;6.576;2024-02-26T02:26:19;5.70;99.90
42907;DHT22;28552;51.146;6.576;2024-02-26T02:29:20;5.70;99.90
42907;DHT22;28552;51.146;6.576;2024-02-26T02:32:21;5.70;99.90
42907;DHT22;28552;51.146;6.576;2024-02-26T02:35:22;5.70;99.90
42907;DHT22;28552;51.146;6.576;2024-02-26T02:38:23;5.70;99.90
42907;DHT22;28552;51.146;6.576;2024-02-26T02:41:26;5.60;99.90
42907;DHT22;28552;51.146;6.576;2024-02-26T02:44:27;5.70;99.90
42907;DHT22;28552;51.146;6.576;2024-02-26T02:47:28;5.60;99.90
42907;DHT22;28552;51.146;6.576;2024-02-26T02:50:28;5.70;99.90
42907;DHT22;28552;51.146;6.576;2024-02-26T02:53:29;5.60;99.90
42907;DHT22;28552;51.146;6.576;2024-02-26T02:56:30;5.70;99.90
42907;DHT22;28552;51.146;6.576;2024-02-26T02:59:30;5.70;99.90
42907;DHT22;28552;51.146;6.576;2024-02-26T03:02:31;5.70;99.90
42907;DHT22;28552;51.146;6.576;2024-02-26T03:05:31;5.70;99.90
42907;DHT22;28552;51.146;6.576;2024-02-26T03:08:32;5.70;99.90
42907;DHT22;28552;51.146;6.576;2024-02-26T03:11:33;5.60;99.90
42907;DHT22;28552;51.146;6.576;2024-02-26T03:14:33;5.60;99.90
42907;DHT22;28552;51.146;6.576;2024-02-26T03:17:34;5.70;99.90
42907;DHT22;28552;51.146;6.576;2024-02-26T03:20:34;5.70;99.90
42907;DHT22;28552;51.146;6.576;2024-02-26T03:23:35;5.60;99.90
42907;DHT22;28552;51.146;6.576;2024-02-26T03:26:37;5.60;99.90
42907;DHT22;28552;51.146;6.576;2024-02-26T03:29:38;5.60;99.90
42907;DHT22;28552;51.146;6.576;2024-02-26T03:32:39;5.60;99.90
42907;DHT22;28552;51.146;6.576;2024-02-26T03:35:39;5.60;99.90
42907;DHT22;28552;51.146;6.576;2024-02-26T03:38:40;5.60;99.90
42907;DHT22;28552;51.146;6.576;2024-02-26T03:41:40;5.60;99.90
42907;DHT22;28552;51.146;6.576;2024-02-26T03:44:41;5.70;99.90
42907;DHT22;28552;51.146;6.576;2024-02-26T03:47:42;5.60;99.90
42907;DHT22;28552;51.146;6.576;2024-02-26T03:50:42;5.60;99.90
42907;DHT22;28552;51.146;6.576;2024-02-26T03:53:43;5.70;99.90
42907;DHT22;28552;51.146;6.576;2024-02-26T03:56:43;5.70;99.90
42907;DHT22;28552;51.146;6.576;2024-02-26T03:59:44;5.70;99.90
42907;DHT22;28552;51.146;6.576;2024-02-26T04:02:46;5.60;99.90
42907;DHT22;28552;51.146;6.576;2024-02-26T04:05:46;5.70;99.90
42907;DHT22;28552;51.146;6.576;2024-02-26T04:08:47;5.70;99.90
42907;DHT22;28552;51.146;6.576;2024-02-26T04:11:48;5.70;99.90
42907;DHT22;28552;51.146;6.576;2024-02-26T04:14:49;5.70;99.90
42907;DHT22;28552;51.146;6.576;2024-02-26T04:17:50;5.70;99.90
42907;DHT22;28552;51.146;6.576;2024-02-26T04:20:50;5.60;99.90
42907;DHT22;28552;51.146;6.576;2024-02-26T04:23:51;5.60;99.90
42907;DHT22;28552;51.146;6.576;2024-02-26T04:26:55;5.60;99.90
42907;DHT22;28552;51.146;6.576;2024-02-26T04:29:56;5.60;99.90
42907;DHT22;28552;51.146;6.576;2024-02-26T04:32:56;5.60;99.90
42907;DHT22;28552;51.146;6.576;2024-02-26T04:35:57;5.60;99.90
42907;DHT22;28552;51.146;6.576;2024-02-26T04:38:57;5.60;99.90
42907;DHT22;28552;51.146;6.576;2024-02-26T04:41:58;5.50;99.90
42907;DHT22;28552;51.146;6.576;2024-02-26T04:44:59;5.60;99.90
42907;DHT22;28552;51.146;6.576;2024-02-26T04:48:00;5.50;99.90
42907;DHT22;28552;51.146;6.576;2024-02-26T04:51:01;5.50;99.90
42907;DHT22;28552;51.146;6.576;2024-02-26T04:54:02;5.50;99.90
42907;DHT22;28552;51.146;6.576;2024-02-26T04:57:03;5.50;99.90
42907;DHT22;28552;51.146;6.576;2024-02-26T05:00:05;5.50;99.90
42907;DHT22;28552;51.146;6.576;2024-02-26T05:03:05;5.50;99.90
42907;DHT22;28552;51.146;6.576;2024-02-26T05:06:06;5.40;99.90
42907;DHT22;28552;51.146;6.576;2024-02-26T05:09:07;5.40;99.90
42907;DHT22;28552;51.146;6.576;2024-02-26T05:12:08;5.40;99.90
42907;DHT22;28552;51.146;6.576;2024-02-26T05:15:09;5.40;99.90
42907;DHT22;28552;51.146;6.576;2024-02-26T05:18:10;5.40;99.90
42907;DHT22;28552;51.146;6.576;2024-02-26T05:21:11;5.40;99.90
42907;DHT22;28552;51.146;6.576;2024-02-26T05:24:12;5.40;99.90
42907;DHT22;28552;51.146;6.576;2024-02-26T05:27:12;5.40;99.90
42907;DHT22;28552;51.146;6.576;2024-02-26T05:30:13;5.40;99.90
42907;DHT22;28552;51.146;6.576;2024-02-26T05:33:14;5.40;99.90
42907;DHT22;28552;51.146;6.576;2024-02-26T05:36:19;5.40;99.90
42907;DHT22;28552;51.146;6.576;2024-02-26T05:39:21;5.40;99.90
42907;DHT22;28552;51.146;6.576;2024-02-26T05:42:22;5.30;99.90
42907;DHT22;28552;51.146;6.576;2024-02-26T05:45:22;5.40;99.90
42907;DHT22;28552;51.146;6.576;2024-02-26T05:48:23;5.40;99.90
42907;DHT22;28552;51.146;6.576;2024-02-26T05:51:24;5.40;99.90
42907;DHT22;28552;51.146;6.576;2024-02-26T05:54:25;5.30;99.90
42907;DHT22;28552;51.146;6.576;2024-02-26T05:57:25;5.30;99.90
42907;DHT22;28552;51.146;6.576;2024-02-26T06:00:26;5.30;99.90
42907;DHT22;28552;51.146;6.576;2024-02-26T06:03:28;5.30;99.90
42907;DHT22;28552;51.146;6.576;2024-02-26T06:06:30;5.30;99.90
42907;DHT22;28552;51.146;6.576;2024-02-26T06:09:34;5.30;99.90
42907;DHT22;28552;51.146;6.576;2024-02-26T06:12:37;5.20;99.90
42907;DHT22;28552;51.146;6.576;2024-02-26T06:15:41;5.30;99.90
42907;DHT22;28552;51.146;6.576;2024-02-26T06:18:42;5.20;99.90
42907;DHT22;28552;51.146;6.576;2024-02-26T06:21:49;5.20;99.90
42907;DHT22;28552;51.146;6.576;2024-02-26T06:24:51;5.20;99.90
42907;DHT22;28552;51.146;6.576;2024-02-26T06:27:54;5.30;99.90
42907;DHT22;28552;51.146;6.576;2024-02-26T06:30:56;5.30;99.90
42907;DHT22;28552;51.146;6.576;2024-02-26T06:33:58;5.30;99.90
42907;DHT22;28552;51.146;6.576;2024-02-26T06:37:18;5.30;99.90
42907;DHT22;28552;51.146;6.576;2024-02-26T06:40:20;5.30;99.90
42907;DHT22;28552;51.146;6.576;2024-02-26T06:43:23;5.30;99.90
42907;DHT22;28552;51.146;6.576;2024-02-26T06:46:27;5.20;99.90
42907;DHT22;28552;51.146;6.576;2024-02-26T06:49:33;5.20;99.90
42907;DHT22;28552;51.146;6.576;2024-02-26T06:52:35;5.20;99.90
42907;DHT22;28552;51.146;6.576;2024-02-26T06:55:39;5.20;99.90
42907;DHT22;28552;51.146;6.576;2024-02-26T06:58:41;5.20;99.90
42907;DHT22;28552;51.146;6.576;2024-02-26T07:01:43;5.20;99.90
42907;DHT22;28552;51.146;6.576;2024-02-26T07:04:44;5.20;99.90
42907;DHT22;28552;51.146;6.576;2024-02-26T07:07:45;5.20;99.90
42907;DHT22;28552;51.146;6.576;2024-02-26T07:10:47;5.20;99.90
42907;DHT22;28552;51.146;6.576;2024-02-26T07:13:48;5.20;99.90
42907;DHT22;28552;51.146;6.576;2024-02-26T07:16:50;5.20;99.90
42907;DHT22;28552;51.146;6.576;2024-02-26T07:19:51;5.20;99.90
42907;DHT22;28552;51.146;6.576;2024-02-26T07:22:55;5.20;99.90
42907;DHT22;28552;51.146;6.576;2024-02-26T07:25:56;5.30;99.90
42907;DHT22;28552;51.146;6.576;2024-02-26T07:28:56;5.20;99.90
42907;DHT22;28552;51.146;6.576;2024-02-26T07:31:58;5.20;99.90
42907;DHT22;28552;51.146;6.576;2024-02-26T07:34:58;5.20;99.90
42907;DHT22;28552;51.146;6.576;2024-02-26T07:38:01;5.20;99.90
42907;DHT22;28552;51.146;6.576;2024-02-26T07:41:03;5.30;99.90
42907;DHT22;28552;51.146;6.576;2024-02-26T07:44:03;5.20;99.90
42907;DHT22;28552;51.146;6.576;2024-02-26T07:47:04;5.30;99.90
42907;DHT22;28552;51.146;6.576;2024-02-26T07:50:05;5.30;99.90
42907;DHT22;28552;51.146;6.576;2024-02-26T07:53:09;5.30;99.90
42907;DHT22;28552;51.146;6.576;2024-02-26T07:56:09;5.30;99.90
42907;DHT22;28552;51.146;6.576;2024-02-26T07:59:10;5.30;99.90
42907;DHT22;28552;51.146;6.576;2024-02-26T08:02:17;5.40;99.90
42907;DHT22;28552;51.146;6.576;2024-02-26T08:05:18;5.30;99.90
42907;DHT22;28552;51.146;6.576;2024-02-26T08:08:23;5.40;99.90
42907;DHT22;28552;51.146;6.576;2024-02-26T08:11:24;5.40;99.90
42907;DHT22;28552;51.146;6.576;2024-02-26T08:14:25;5.40;99.90
42907;DHT22;28552;51.146;6.576;2024-02-26T08:17:29;5.40;99.90
42907;DHT22;28552;51.146;6.576;2024-02-26T08:20:31;5.40;99.90
42907;DHT22;28552;51.146;6.576;2024-02-26T08:23:40;5.40;99.90
42907;DHT22;28552;51.146;6.576;2024-02-26T08:26:46;5.40;99.90
42907;DHT22;28552;51.146;6.576;2024-02-26T08:29:47;5.50;99.90
42907;DHT22;28552;51.146;6.576;2024-02-26T08:32:48;5.40;99.90
42907;DHT22;28552;51.146;6.576;2024-02-26T08:35:49;5.50;99.90
42907;DHT22;28552;51.146;6.576;2024-02-26T08:38:51;5.50;99.90
42907;DHT22;28552;51.146;6.576;2024-02-26T08:41:52;5.50;99.90
42907;DHT22;28552;51.146;6.576;2024-02-26T08:44:53;5.50;99.90
42907;DHT22;28552;51.146;6.576;2024-02-26T08:47:55;5.50;99.90
42907;DHT22;28552;51.146;6.576;2024-02-26T08:50:55;5.50;99.90
42907;DHT22;28552;51.146;6.576;2024-02-26T08:53:56;5.50;99.90
42907;DHT22;28552;51.146;6.576;2024-02-26T08:56:57;5.50;99.90
42907;DHT22;28552;51.146;6.576;2024-02-26T08:59:57;5.60;99.90
42907;DHT22;28552;51.146;6.576;2024-02-26T09:02:59;5.50;99.90
42907;DHT22;28552;51.146;6.576;2024-02-26T09:06:00;5.60;99.90
42907;DHT22;28552;51.146;6.576;2024-02-26T09:09:01;5.50;99.90
42907;DHT22;28552;51.146;6.576;2024-02-26T09:12:02;5.60;99.90
42907;DHT22;28552;51.146;6.576;2024-02-26T09:15:03;5.50;99.90
42907;DHT22;28552;51.146;6.576;2024-02-26T09:18:04;5.60;99.90
42907;DHT22;28552;51.146;6.576;2024-02-26T09:21:05;5.60;99.90
42907;DHT22;28552;51.146;6.576;2024-02-26T09:24:07;5.60;99.90
42907;DHT22;28552;51.146;6.576;2024-02-26T09:27:07;5.60;99.90
42907;DHT22;28552;51.146;6.576;2024-02-26T09:30:11;5.60;99.90
42907;DHT22;28552;51.146;6.576;2024-02-26T09:33:13;5.60;99.90
42907;DHT22;28552;51.146;6.576;2024-02-26T09:36:14;5.60;99.90
42907;DHT22;28552;51.146;6.576;2024-02-26T09:39:15;5.70;99.90
42907;DHT22;28552;51.146;6.576;2024-02-26T09:42:25;5.70;99.90
42907;DHT22;28552;51.146;6.576;2024-02-26T09:45:28;5.80;99.90
42907;DHT22;28552;51.146;6.576;2024-02-26T09:48:30;5.80;99.90
42907;DHT22;28552;51.146;6.576;2024-02-26T09:51:31;5.80;99.90
42907;DHT22;28552;51.146;6.576;2024-02-26T09:54:33;5.80;99.90
42907;DHT22;28552;51.146;6.576;2024-02-26T09:57:34;5.90;99.90
42907;DHT22;28552;51.146;6.576;2024-02-26T10:00:37;5.90;99.90
42907;DHT22;28552;51.146;6.576;2024-02-26T10:03:41;6.00;99.90
42907;DHT22;28552;51.146;6.576;2024-02-26T10:06:43;6.00;99.90
42907;DHT22;28552;51.146;6.576;2024-02-26T10:09:44;6.00;99.90
42907;DHT22;28552;51.146;6.576;2024-02-26T10:12:46;6.00;99.90
42907;DHT22;28552;51.146;6.576;2024-02-26T10:15:47;6.00;99.90
42907;DHT22;28552;51.146;6.576;2024-02-26T10:18:50;6.10;99.90
42907;DHT22;28552;51.146;6.576;2024-02-26T10:21:55;6.10;99.90
42907;DHT22;28552;51.146;6.576;2024-02-26T10:24:56;6.20;99.90
42907;DHT22;28552;51.146;6.576;2024-02-26T10:28:02;6.20;99.90
42907;DHT22;28552;51.146;6.576;2024-02-26T10:31:03;6.30;99.90
42907;DHT22;28552;51.146;6.576;2024-02-26T10:34:04;6.30;99.90
42907;DHT22;28552;51.146;6.576;2024-02-26T10:37:08;6.30;99.90
42907;DHT22;28552;51.146;6.576;2024-02-26T10:40:10;6.30;99.90
42907;DHT22;28552;51.146;6.576;2024-02-26T10:43:11;6.30;99.90
42907;DHT22;28552;51.146;6.576;2024-02-26T10:46:14;6.30;99.90
42907;DHT22;28552;51.146;6.576;2024-02-26T10:49:15;6.30;99.90
42907;DHT22;28552;51.146;6.576;2024-02-26T10:52:19;6.30;99.90
42907;DHT22;28552;51.146;6.576;2024-02-26T10:55:23;6.30;99.90
42907;DHT22;28552;51.146;6.576;2024-02-26T10:58:24;6.40;99.90
42907;DHT22;28552;51.146;6.576;2024-02-26T11:01:27;6.50;99.90
42907;DHT22;28552;51.146;6.576;2024-02-26T11:04:31;6.60;99.90
42907;DHT22;28552;51.146;6.576;2024-02-26T11:07:32;6.80;99.90
42907;DHT22;28552;51.146;6.576;2024-02-26T11:10:35;6.90;99.90
42907;DHT22;28552;51.146;6.576;2024-02-26T11:13:37;7.00;99.90
42907;DHT22;28552;51.146;6.576;2024-02-26T11:16:40;7.10;99.90
42907;DHT22;28552;51.146;6.576;2024-02-26T11:19:44;7.10;99.90
42907;DHT22;28552;51.146;6.576;2024-02-26T11:22:45;7.00;99.90
42907;DHT22;28552;51.146;6.576;2024-02-26T11:25:46;6.90;99.90
42907;DHT22;28552;51.146;6.576;2024-02-26T11:28:48;6.90;99.90
42907;DHT22;28552;51.146;6.576;2024-02-26T11:31:52;6.80;99.90
42907;DHT22;28552;51.146;6.576;2024-02-26T11:34:54;6.80;99.90
42907;DHT22;28552;51.146;6.576;2024-02-26T11:37:55;6.80;99.90
42907;DHT22;28552;51.146;6.576;2024-02-26T11:40:58;6.90;99.90
42907;DHT22;28552;51.146;6.576;2024-02-26T11:44:01;6.90;99.90
42907;DHT22;28552;51.146;6.576;2024-02-26T11:47:18;6.90;99.90
42907;DHT22;28552;51.146;6.576;2024-02-26T11:50:35;6.90;99.90
42907;DHT22;28552;51.146;6.576;2024-02-26T11:53:46;6.90;99.90
42907;DHT22;28552;51.146;6.576;2024-02-26T11:56:50;6.80;99.90
42907;DHT22;28552;51.146;6.576;2024-02-26T11:59:51;6.80;99.90
42907;DHT22;28552;51.146;6.576;2024-02-26T12:02:52;6.60;99.90
42907;DHT22;28552;51.146;6.576;2024-02-26T12:05:58;6.60;99.90
42907;DHT22;28552;51.146;6.576;2024-02-26T12:09:00;6.60;99.90
42907;DHT22;28552;51.146;6.576;2024-02-26T12:12:03;6.60;99.90
42907;DHT22;28552;51.146;6.576;2024-02-26T12:15:05;6.60;99.90
42907;DHT22;28552;51.146;6.576;2024-02-26T12:18:07;6.50;99.90
42907;DHT22;28552;51.146;6.576;2024-02-26T12:21:08;6.50;99.90
42907;DHT22;28552;51.146;6.576;2024-02-26T12:24:14;6.40;99.90
42907;DHT22;28552;51.146;6.576;2024-02-26T12:27:16;6.40;99.90
42907;DHT22;28552;51.146;6.576;2024-02-26T12:30:17;6.40;99.90
42907;DHT22;28552;51.146;6.576;2024-02-26T12:33:18;6.40;99.90
42907;DHT22;28552;51.146;6.576;2024-02-26T12:36:19;6.40;99.90
42907;DHT22;28552;51.146;6.576;2024-02-26T12:39:19;6.50;99.90
42907;DHT22;28552;51.146;6.576;2024-02-26T12:42:21;6.50;99.90
42907;DHT22;28552;51.146;6.576;2024-02-26T12:45:21;6.60;99.90
42907;DHT22;28552;51.146;6.576;2024-02-26T12:48:22;6.60;99.90
42907;DHT22;28552;51.146;6.576;2024-02-26T12:51:23;6.50;99.90
42907;DHT22;28552;51.146;6.576;2024-02-26T12:54:24;6.50;99.90
42907;DHT22;28552;51.146;6.576;2024-02-26T12:57:25;6.40;99.90
42907;DHT22;28552;51.146;6.576;2024-02-26T13:00:27;6.30;99.90
42907;DHT22;28552;51.146;6.576;2024-02-26T13:03:29;6.30;99.90
42907;DHT22;28552;51.146;6.576;2024-02-26T13:06:31;6.30;99.90
42907;DHT22;28552;51.146;6.576;2024-02-26T13:09:33;6.30;99.90
42907;DHT22;28552;51.146;6.576;2024-02-26T13:12:35;6.30;99.90
42907;DHT22;28552;51.146;6.576;2024-02-26T13:15:36;6.40;99.90
42907;DHT22;28552;51.146;6.576;2024-02-26T13:18:38;6.40;99.90
42907;DHT22;28552;51.146;6.576;2024-02-26T13:21:39;6.40;99.90
42907;DHT22;28552;51.146;6.576;2024-02-26T13:24:39;6.40;99.90
42907;DHT22;28552;51.146;6.576;2024-02-26T13:27:40;6.40;99.90
42907;DHT22;28552;51.146;6.576;2024-02-26T13:30:41;6.50;99.90
42907;DHT22;28552;51.146;6.576;2024-02-26T13:33:41;6.50;99.90
42907;DHT22;28552;51.146;6.576;2024-02-26T13:36:46;6.50;99.90
42907;DHT22;28552;51.146;6.576;2024-02-26T13:39:47;6.50;99.90
42907;DHT22;28552;51.146;6.576;2024-02-26T13:42:48;6.50;99.90
42907;DHT22;28552;51.146;6.576;2024-02-26T13:45:48;6.50;99.90
42907;DHT22;28552;51.146;6.576;2024-02-26T13:48:49;6.60;99.90
42907;DHT22;28552;51.146;6.576;2024-02-26T13:51:50;6.60;99.90
42907;DHT22;28552;51.146;6.576;2024-02-26T13:54:54;6.60;99.90
42907;DHT22;28552;51.146;6.576;2024-02-26T13:57:55;6.60;99.90
42907;DHT22;28552;51.146;6.576;2024-02-26T14:00:57;6.70;99.90
42907;DHT22;28552;51.146;6.576;2024-02-26T14:04:01;6.70;99.90
42907;DHT22;28552;51.146;6.576;2024-02-26T14:07:08;6.70;99.90
42907;DHT22;28552;51.146;6.576;2024-02-26T14:10:16;6.80;99.90
42907;DHT22;28552;51.146;6.576;2024-02-26T14:13:44;6.90;99.90
42907;DHT22;28552;51.146;6.576;2024-02-26T14:17:21;7.00;99.90
42907;DHT22;28552;51.146;6.576;2024-02-26T14:20:46;7.00;99.90
42907;DHT22;28552;51.146;6.576;2024-02-26T14:24:51;7.00;99.90
42907;DHT22;28552;51.146;6.576;2024-02-26T14:45:55;6.90;99.90
42907;DHT22;28552;51.146;6.576;2024-02-26T14:49:26;6.90;99.90
42907;DHT22;28552;51.146;6.576;2024-02-26T14:52:55;6.90;99.90
42907;DHT22;28552;51.146;6.576;2024-02-26T14:56:21;6.90;99.90
42907;DHT22;28552;51.146;6.576;2024-02-26T14:59:51;6.90;99.90
42907;DHT22;28552;51.146;6.576;2024-02-26T15:03:00;7.00;99.90
42907;DHT22;28552;51.146;6.576;2024-02-26T15:07:03;7.00;99.90
42907;DHT22;28552;51.146;6.576;2024-02-26T15:10:12;7.00;99.90
42907;DHT22;28552;51.146;6.576;2024-02-26T15:13:23;6.90;99.90
42907;DHT22;28552;51.146;6.576;2024-02-26T15:16:28;6.90;99.90
42907;DHT22;28552;51.146;6.576;2024-02-26T15:19:35;6.90;99.90
42907;DHT22;28552;51.146;6.576;2024-02-26T15:22:44;6.80;99.90
42907;DHT22;28552;51.146;6.576;2024-02-26T15:38:50;6.70;99.90
42907;DHT22;28552;51.146;6.576;2024-02-26T15:41:56;6.60;99.90
42907;DHT22;28552;51.146;6.576;2024-02-26T15:45:03;6.60;99.90
42907;DHT22;28552;51.146;6.576;2024-02-26T15:48:08;6.60;99.90
42907;DHT22;28552;51.146;6.576;2024-02-26T15:51:22;6.60;99.90
42907;DHT22;28552;51.146;6.576;2024-02-26T15:54:26;6.50;99.90
42907;DHT22;28552;51.146;6.576;2024-02-26T15:57:29;6.50;99.90
42907;DHT22;28552;51.146;6.576;2024-02-26T16:00:34;6.40;99.90
42907;DHT22;28552;51.146;6.576;2024-02-26T16:03:37;6.40;99.90
42907;DHT22;28552;51.146;6.576;2024-02-26T16:06:43;6.40;99.90
42907;DHT22;28552;51.146;6.576;2024-02-26T16:09:51;6.40;99.90
42907;DHT22;28552;51.146;6.576;2024-02-26T16:12:58;6.40;99.90
42907;DHT22;28552;51.146;6.576;2024-02-26T16:16:06;6.30;99.90
42907;DHT22;28552;51.146;6.576;2024-02-26T16:19:12;6.30;99.90
42907;DHT22;28552;51.146;6.576;2024-02-26T16:22:14;6.30;99.90
42907;DHT22;28552;51.146;6.576;2024-02-26T16:25:19;6.30;99.90
42907;DHT22;28552;51.146;6.576;2024-02-26T16:28:40;6.30;99.90
42907;DHT22;28552;51.146;6.576;2024-02-26T16:31:43;6.30;99.90
42907;DHT22;28552;51.146;6.576;2024-02-26T16:34:49;6.30;99.90
42907;DHT22;28552;51.146;6.576;2024-02-26T16:37:51;6.30;99.90
42907;DHT22;28552;51.146;6.576;2024-02-26T16:40:55;6.30;99.90
42907;DHT22;28552;51.146;6.576;2024-02-26T16:43:56;6.20;99.90
42907;DHT22;28552;51.146;6.576;2024-02-26T16:46:58;6.20;99.90
42907;DHT22;28552;51.146;6.576;2024-02-26T16:49:59;6.20;99.90
42907;DHT22;28552;51.146;6.576;2024-02-26T16:52:59;6.20;99.90
42907;DHT22;28552;51.146;6.576;2024-02-26T16:56:00;6.20;99.90
42907;DHT22;28552;51.146;6.576;2024-02-26T16:59:02;6.20;99.90
42907;DHT22;28552;51.146;6.576;2024-02-26T17:02:04;6.20;99.90
42907;DHT22;28552;51.146;6.576;2024-02-26T17:05:05;6.20;99.90
42907;DHT22;28552;51.146;6.576;2024-02-26T17:08:05;6.20;99.90
42907;DHT22;28552;51.146;6.576;2024-02-26T17:11:07;6.20;99.90
42907;DHT22;28552;51.146;6.576;2024-02-26T17:14:08;6.20;99.90
42907;DHT22;28552;51.146;6.576;2024-02-26T17:17:08;6.10;99.90
42907;DHT22;28552;51.146;6.576;2024-02-26T17:20:09;6.10;99.90
42907;DHT22;28552;51.146;6.576;2024-02-26T17:23:11;6.10;99.90
42907;DHT22;28552;51.146;6.576;2024-02-26T17:26:18;6.20;99.90
42907;DHT22;28552;51.146;6.576;2024-02-26T17:29:19;6.20;99.90
42907;DHT22;28552;51.146;6.576;2024-02-26T17:32:19;6.20;99.90
42907;DHT22;28552;51.146;6.576;2024-02-26T17:35:20;6.10;99.90
42907;DHT22;28552;51.146;6.576;2024-02-26T17:38:21;6.10;99.90
42907;DHT22;28552;51.146;6.576;2024-02-26T17:41:22;6.10;99.90
42907;DHT22;28552;51.146;6.576;2024-02-26T17:44:23;6.10;99.90
42907;DHT22;28552;51.146;6.576;2024-02-26T17:47:27;6.10;99.90
42907;DHT22;28552;51.146;6.576;2024-02-26T17:50:28;6.00;99.90
42907;DHT22;28552;51.146;6.576;2024-02-26T17:53:29;6.00;99.90
42907;DHT22;28552;51.146;6.576;2024-02-26T17:56:31;6.00;99.90
42907;DHT22;28552;51.146;6.576;2024-02-26T17:59:32;6.00;99.90
42907;DHT22;28552;51.146;6.576;2024-02-26T18:02:33;6.00;99.90
42907;DHT22;28552;51.146;6.576;2024-02-26T18:05:34;6.00;99.90
42907;DHT22;28552;51.146;6.576;2024-02-26T18:08:35;6.00;99.90
42907;DHT22;28552;51.146;6.576;2024-02-26T18:11:36;6.00;99.90
42907;DHT22;28552;51.146;6.576;2024-02-26T18:14:37;6.00;99.90
42907;DHT22;28552;51.146;6.576;2024-02-26T18:17:38;6.10;99.90
42907;DHT22;28552;51.146;6.576;2024-02-26T18:20:39;6.10;99.90
42907;DHT22;28552;51.146;6.576;2024-02-26T18:23:44;6.10;99.90
42907;DHT22;28552;51.146;6.576;2024-02-26T18:26:45;6.10;99.90
42907;DHT22;28552;51.146;6.576;2024-02-26T18:29:51;6.20;99.90
42907;DHT22;28552;51.146;6.576;2024-02-26T18:33:12;6.20;99.90
42907;DHT22;28552;51.146;6.576;2024-02-26T18:36:13;6.10;99.90
42907;DHT22;28552;51.146;6.576;2024-02-26T18:39:28;6.10;99.90
42907;DHT22;28552;51.146;6.576;2024-02-26T18:42:30;6.20;99.90
42907;DHT22;28552;51.146;6.576;2024-02-26T18:45:34;6.20;99.90
42907;DHT22;28552;51.146;6.576;2024-02-26T18:48:37;6.20;99.90
42907;DHT22;28552;51.146;6.576;2024-02-26T18:51:45;6.20;99.90
42907;DHT22;28552;51.146;6.576;2024-02-26T18:54:45;6.20;99.90
42907;DHT22;28552;51.146;6.576;2024-02-26T18:57:46;6.20;99.90
42907;DHT22;28552;51.146;6.576;2024-02-26T19:00:47;6.20;99.90
42907;DHT22;28552;51.146;6.576;2024-02-26T19:03:48;6.20;99.90
42907;DHT22;28552;51.146;6.576;2024-02-26T19:06:49;6.20;99.90
42907;DHT22;28552;51.146;6.576;2024-02-26T19:09:49;6.20;99.90
42907;DHT22;28552;51.146;6.576;2024-02-26T19:12:53;6.20;99.90
42907;DHT22;28552;51.146;6.576;2024-02-26T19:15:54;6.20;99.90
42907;DHT22;28552;51.146;6.576;2024-02-26T19:18:54;6.20;99.90
42907;DHT22;28552;51.146;6.576;2024-02-26T19:21:55;6.20;99.90
42907;DHT22;28552;51.146;6.576;2024-02-26T19:24:57;6.20;99.90
42907;DHT22;28552;51.146;6.576;2024-02-26T19:27:58;6.20;99.90
42907;DHT22;28552;51.146;6.576;2024-02-26T19:30:58;6.20;99.90
42907;DHT22;28552;51.146;6.576;2024-02-26T19:33:59;6.20;99.90
42907;DHT22;28552;51.146;6.576;2024-02-26T19:37:00;6.20;99.90
42907;DHT22;28552;51.146;6.576;2024-02-26T19:40:03;6.20;99.90
42907;DHT22;28552;51.146;6.576;2024-02-26T19:43:04;6.20;99.90
42907;DHT22;28552;51.146;6.576;2024-02-26T19:46:05;6.20;99.90
42907;DHT22;28552;51.146;6.576;2024-02-26T19:49:06;6.30;99.90
42907;DHT22;28552;51.146;6.576;2024-02-26T19:52:06;6.30;99.90
42907;DHT22;28552;51.146;6.576;2024-02-26T19:55:13;6.30;99.90
42907;DHT22;28552;51.146;6.576;2024-02-26T19:58:15;6.30;99.90
42907;DHT22;28552;51.146;6.576;2024-02-26T20:01:15;6.30;99.90
42907;DHT22;28552;51.146;6.576;2024-02-26T20:04:16;6.30;99.90